Time;durP1;ratioP1;P1;durP2;ratioP2;P2;SDS_P1;SDS_P2;PMS_P1;PMS_P2;Temp;Humidity;BMP_temperature;BMP_pressure;BME280_temperature;BME280_humidity;BME280_pressure;Samples;Min_cycle;Max_cycle;Signal;HPM_P1;HPM_P2
2022/05/13 00:00:08;;;;;;;10.55;7.00;;;;;;;14.68;69.14;100374.91;5088997;28;20032;-29
2022/05/13 00:02:34;;;;;;;12.35;8.27;;;;;;;14.97;68.95;100369.53;5107236;28;20434;-29
2022/05/13 00:05:02;;;;;;;10.00;7.32;;;;;;;14.94;69.14;100341.31;5088972;28;20092;-29
2022/05/13 00:07:27;;;;;;;9.27;7.22;;;;;;;15.06;68.57;100354.69;5089152;28;20027;-31
2022/05/13 00:10:00;;;;;;;11.35;7.57;;;;;;;15.11;67.50;100349.38;5088745;28;20100;-29
2022/05/13 00:12:31;;;;;;;11.50;7.68;;;;;;;15.22;68.03;100351.22;5107527;28;20028;-31
2022/05/13 00:14:58;;;;;;;10.27;7.65;;;;;;;15.35;67.32;100349.25;5088713;28;20122;-30
2022/05/13 00:17:24;;;;;;;10.77;7.28;;;;;;;15.38;66.15;100332.63;5088833;28;20032;-33
2022/05/13 00:19:49;;;;;;;11.45;7.72;;;;;;;15.71;64.69;100358.69;5088444;28;20144;-29
2022/05/13 00:22:16;;;;;;;9.38;6.78;;;;;;;15.31;65.78;100345.44;5107129;28;20097;-30
2022/05/13 00:24:41;;;;;;;10.27;7.20;;;;;;;15.46;64.87;100364.47;5088966;28;20063;-29
2022/05/13 00:27:07;;;;;;;10.85;7.32;;;;;;;15.62;64.01;100344.84;5088830;28;20112;-29
2022/05/13 00:29:33;;;;;;;12.05;7.28;;;;;;;15.39;65.93;100366.53;5107255;28;20016;-30
2022/05/13 00:31:59;;;;;;;14.15;7.70;;;;;;;15.23;65.60;100362.75;5092238;28;20035;-32
2022/05/13 00:34:24;;;;;;;11.38;6.97;;;;;;;15.00;66.48;100361.03;5093072;28;20088;-28
2022/05/13 00:36:51;;;;;;;9.45;6.50;;;;;;;15.32;65.66;100366.66;5111184;28;20403;-34
2022/05/13 00:39:16;;;;;;;9.02;6.88;;;;;;;15.13;65.87;100366.06;5089201;28;20059;-34
2022/05/13 00:41:42;;;;;;;10.55;6.93;;;;;;;14.88;67.36;100365.63;5090841;28;20067;-30
2022/05/13 00:44:08;;;;;;;11.98;7.40;;;;;;;14.45;69.44;100357.78;5089187;28;20423;-29
2022/05/13 00:46:34;;;;;;;11.07;6.97;;;;;;;14.18;70.54;100352.13;5091030;28;20035;-29
2022/05/13 00:49:03;;;;;;;10.10;6.55;;;;;;;14.43;70.76;100364.44;5090597;28;20028;-31
2022/05/13 00:51:36;;;;;;;10.02;7.78;;;;;;;14.40;70.93;100373.75;5090540;28;20028;-30
2022/05/13 00:54:04;;;;;;;10.55;6.85;;;;;;;14.23;70.91;100370.19;5089259;28;20028;-29
2022/05/13 00:56:30;;;;;;;11.20;7.70;;;;;;;14.53;69.05;100337.00;5089299;28;20031;-31
2022/05/13 00:58:59;;;;;;;11.93;7.28;;;;;;;13.89;71.13;100359.25;5090469;28;20077;-35
2022/05/13 01:01:25;;;;;;;12.55;7.63;;;;;;;14.09;71.03;100374.19;5089069;28;20038;-34
2022/05/13 01:03:51;;;;;;;10.18;7.05;;;;;;;14.17;70.39;100381.88;5089844;28;20411;-29
2022/05/13 01:06:21;;;;;;;11.95;8.32;;;;;;;14.15;70.50;100362.50;5089143;28;20035;-28
2022/05/13 01:08:47;;;;;;;10.55;7.72;;;;;;;14.02;71.43;100364.38;5090662;28;20032;-29
2022/05/13 01:11:21;;;;;;;10.85;7.40;;;;;;;14.29;70.08;100361.19;5088966;28;20028;-30
2022/05/13 01:13:51;;;;;;;10.68;7.97;;;;;;;14.01;71.03;100372.66;5090128;28;20107;-29
2022/05/13 01:16:17;;;;;;;11.07;7.55;;;;;;;13.70;72.33;100368.47;5089971;28;20477;-32
2022/05/13 01:18:43;;;;;;;20.52;8.07;;;;;;;13.69;71.01;100353.41;5088868;28;20028;-28
2022/05/13 01:21:13;;;;;;;13.00;7.80;;;;;;;13.82;70.71;100363.91;5088666;28;20154;-28
2022/05/13 01:23:44;;;;;;;12.05;8.73;;;;;;;14.14;70.06;100371.59;5089962;28;20605;-31
2022/05/13 01:26:15;;;;;;;10.93;8.13;;;;;;;14.42;68.95;100366.28;5088374;28;20139;-30
2022/05/13 01:28:50;;;;;;;12.85;10.00;;;;;;;13.92;70.08;100353.44;5088383;28;20511;-32
2022/05/13 01:31:29;;;;;;;10.20;7.50;;;;;;;13.22;72.50;100363.00;5089988;28;20056;-29
2022/05/13 01:33:55;;;;;;;9.73;7.28;;;;;;;13.11;72.22;100368.31;5090137;28;20039;-31
2022/05/13 01:36:21;;;;;;;10.05;6.82;;;;;;;13.17;71.05;100344.09;5089489;28;20032;-30
2022/05/13 01:38:48;;;;;;;11.85;7.53;;;;;;;13.44;70.82;100362.47;5088127;28;20079;-30
2022/05/13 01:41:14;;;;;;;11.23;7.47;;;;;;;13.01;72.60;100339.41;5088291;28;20138;-31
2022/05/13 01:43:42;;;;;;;11.23;7.15;;;;;;;12.91;73.63;100368.56;5089291;28;20119;-29
2022/05/13 01:46:08;;;;;;;11.15;8.18;;;;;;;13.42;71.28;100367.25;5088286;28;20028;-30
2022/05/13 01:48:34;;;;;;;10.98;8.23;;;;;;;13.22;71.18;100363.00;5088365;28;20039;-29
2022/05/13 01:51:00;;;;;;;13.45;8.30;;;;;;;13.37;70.90;100345.69;5088083;28;20039;-28
2022/05/13 01:53:26;;;;;;;12.55;8.75;;;;;;;13.26;71.60;100342.75;5088163;28;20044;-32
2022/05/13 01:55:52;;;;;;;11.77;7.70;;;;;;;13.27;71.36;100356.94;5089521;28;20031;-30
2022/05/13 01:58:21;;;;;;;9.85;8.23;;;;;;;13.53;70.36;100357.63;5087963;28;20532;-28
2022/05/13 02:00:48;;;;;;;10.70;8.23;;;;;;;13.53;70.06;100358.44;5087956;28;20055;-29
2022/05/13 02:05:58;;;;;;;12.20;9.02;;;;;;;13.77;69.84;100351.22;5089410;28;20058;-31
2022/05/13 02:08:24;;;;;;;17.42;10.27;;;;;;;13.10;71.97;100334.53;5089016;28;20547;-29
2022/05/13 02:10:50;;;;;;;13.43;8.65;;;;;;;12.81;73.29;100343.19;5089315;28;20031;-28
2022/05/13 02:13:16;;;;;;;11.48;8.25;;;;;;;13.18;70.63;100359.13;5088878;28;20036;-28
2022/05/13 02:15:42;;;;;;;14.50;10.63;;;;;;;13.11;71.63;100353.06;5087462;28;20035;-28
2022/05/13 02:18:09;;;;;;;15.05;10.27;;;;;;;13.60;70.10;100345.72;5088993;28;20031;-29
2022/05/13 02:20:36;;;;;;;15.38;10.30;;;;;;;13.09;70.63;100331.03;5087579;28;20077;-33
2022/05/13 02:23:01;;;;;;;15.07;9.85;;;;;;;12.76;73.64;100343.03;5087287;28;20035;-28
2022/05/13 02:25:29;;;;;;;13.07;8.50;;;;;;;12.30;72.75;100357.81;5089001;28;20036;-29
2022/05/13 02:27:55;;;;;;;;;;;;;;;12.23;73.07;100357.06;5087848;28;21164;-30
2022/05/13 02:30:22;;;;;;;13.18;7.70;;;;;;;12.69;71.49;100350.34;5087341;28;19916;-31
2022/05/13 02:32:47;;;;;;;13.05;8.73;;;;;;;13.16;70.83;100333.66;5088793;28;20110;-31
2022/05/13 02:35:13;;;;;;;17.60;9.13;;;;;;;13.01;71.21;100331.38;5086953;28;20571;-29
2022/05/13 02:37:38;;;;;;;13.10;9.60;;;;;;;13.01;71.76;100350.09;5088277;28;20036;-29
2022/05/13 02:40:04;;;;;;;11.80;9.15;;;;;;;13.08;71.81;100356.19;5086834;28;20063;-28
2022/05/13 02:42:29;;;;;;;14.55;9.55;;;;;;;13.28;70.73;100361.28;5087187;28;20031;-29
2022/05/13 02:44:55;;;;;;;13.52;8.73;;;;;;;12.23;74.24;100341.00;5088455;28;20039;-28
2022/05/13 02:47:20;;;;;;;11.82;8.40;;;;;;;12.65;72.83;100359.88;5088566;28;20035;-30
2022/05/13 02:49:46;;;;;;;13.43;9.32;;;;;;;12.61;73.53;100364.03;5088259;28;20031;-33
2022/05/13 02:52:12;;;;;;;12.00;8.70;;;;;;;12.81;72.79;100348.53;5088164;28;20473;-29
2022/05/13 02:54:38;;;;;;;13.98;8.15;;;;;;;12.91;73.11;100361.34;5086522;28;20569;-28
2022/05/13 02:57:05;;;;;;;13.70;8.45;;;;;;;13.18;71.79;100356.47;5088470;28;20032;-29
2022/05/13 02:59:30;;;;;;;15.07;9.15;;;;;;;13.08;72.68;100364.22;5086799;28;20069;-29
2022/05/13 03:01:56;;;;;;;19.00;10.45;;;;;;;13.40;70.36;100345.22;5088419;28;20035;-29
2022/05/13 03:04:22;;;;;;;13.48;9.55;;;;;;;13.58;69.53;100342.47;5088081;28;20059;-29
2022/05/13 03:06:51;;;;;;;14.50;8.68;;;;;;;13.54;70.77;100361.91;5086153;28;20024;-28
2022/05/13 03:09:17;;;;;;;12.07;8.65;;;;;;;13.43;71.05;100350.94;5088132;28;20036;-31
2022/05/13 03:11:43;;;;;;;12.07;9.45;;;;;;;13.58;70.26;100361.22;5086129;28;20454;-31
2022/05/13 03:14:09;;;;;;;13.82;9.13;;;;;;;12.78;73.76;100366.91;5087839;28;20020;-28
2022/05/13 03:16:36;;;;;;;10.90;8.18;;;;;;;12.64;74.04;100379.63;5087887;28;20090;-32
2022/05/13 03:19:02;;;;;;;11.90;8.65;;;;;;;12.81;73.48;100386.00;5086297;28;20028;-29
2022/05/13 03:21:28;;;;;;;15.52;8.93;;;;;;;12.93;73.03;100383.38;5087665;28;20122;-30
2022/05/13 03:23:54;;;;;;;16.35;9.00;;;;;;;12.82;72.96;100387.63;5086182;28;20023;-30
2022/05/13 03:26:21;;;;;;;12.85;8.57;;;;;;;12.83;73.10;100394.63;5086452;28;20846;-33
2022/05/13 03:28:47;;;;;;;14.20;8.40;;;;;;;12.69;74.36;100393.16;5086129;28;20447;-29
2022/05/13 03:31:13;;;;;;;13.48;8.70;;;;;;;12.76;73.59;100377.81;5086223;28;20020;-30
2022/05/13 03:33:39;;;;;;;14.55;9.27;;;;;;;13.49;70.79;100391.28;5087239;28;20042;-31
2022/05/13 03:36:06;;;;;;;15.63;8.30;;;;;;;12.92;73.06;100399.66;5085882;28;20067;-29
2022/05/13 03:38:32;;;;;;;14.10;8.00;;;;;;;12.73;72.27;100402.38;5088439;28;20046;-29
2022/05/13 03:40:57;;;;;;;17.38;8.18;;;;;;;13.07;70.49;100387.50;5108082;28;20403;-29
2022/05/13 03:43:23;;;;;;;39.47;10.65;;;;;;;12.34;73.91;100404.47;5107971;28;20501;-30
2022/05/13 03:45:48;;;;;;;18.83;9.60;;;;;;;12.25;74.57;100381.72;5107572;28;20487;-29
2022/05/13 03:48:14;;;;;;;18.23;10.25;;;;;;;12.18;75.99;100381.78;5107865;28;20058;-31
2022/05/13 03:50:42;;;;;;;15.57;10.27;;;;;;;12.41;75.93;100397.19;5107504;28;20845;-29
2022/05/13 03:53:07;;;;;;;;;;;;;;;12.22;77.24;100404.38;5108253;28;20076;-33
2022/05/13 03:55:35;;;;;;;13.88;9.90;;;;;;;12.21;77.19;100391.22;5107311;28;19920;-29
2022/05/13 03:58:02;;;;;;;15.35;10.68;;;;;;;12.75;75.40;100416.34;5089251;28;20028;-28
2022/05/13 04:00:28;;;;;;;15.53;9.57;;;;;;;12.68;75.59;100406.75;5107628;28;20084;-33
2022/05/13 04:02:53;;;;;;;18.67;9.77;;;;;;;12.38;76.86;100380.75;5107421;28;20695;-30
2022/05/13 04:10:48;;;;;;;21.88;13.27;;;;;;;13.95;70.53;100425.34;5107701;28;20057;-28
2022/05/13 04:16:04;;;;;;;21.30;11.80;;;;;;;14.01;71.39;100427.09;5107369;28;20038;-29
2022/05/13 04:18:34;;;;;;;15.48;10.38;;;;;;;14.01;71.09;100431.66;5107644;28;20020;-29
2022/05/13 04:21:00;;;;;;;19.40;10.38;;;;;;;13.62;72.96;100413.28;5089176;28;20496;-30
2022/05/13 04:23:25;;;;;;;13.57;8.95;;;;;;;14.01;72.37;100432.47;5089260;28;20543;-28
2022/05/13 04:25:50;;;;;;;19.33;10.25;;;;;;;14.20;72.58;100440.38;5106581;28;20031;-31
2022/05/13 04:28:16;;;;;;;15.18;9.38;;;;;;;14.39;71.79;100439.22;5088502;28;20027;-30
2022/05/13 04:30:42;;;;;;;15.98;8.88;;;;;;;14.39;71.60;100422.31;5088878;28;20797;-31
2022/05/13 04:33:12;;;;;;;19.60;9.40;;;;;;;14.76;71.26;100440.84;5107280;28;20028;-29
2022/05/13 04:35:37;;;;;;;15.02;9.60;;;;;;;15.11;69.87;100443.41;5106795;28;20042;-29
2022/05/13 04:38:03;;;;;;;13.15;8.32;;;;;;;15.14;69.92;100429.50;5088494;28;20035;-30
2022/05/13 04:40:28;;;;;;;13.32;9.35;;;;;;;15.46;68.04;100447.81;5106684;28;20062;-31
2022/05/13 04:42:54;;;;;;;13.43;8.68;;;;;;;15.41;69.84;100442.34;5106749;28;20080;-29
2022/05/13 04:45:25;;;;;;;13.98;8.82;;;;;;;15.51;70.13;100450.59;5088636;28;20032;-30
2022/05/13 04:48:18;;;;;;;12.43;8.75;;;;;;;15.20;72.50;100449.19;5088140;28;20036;-29
2022/05/13 04:50:52;;;;;;;13.73;9.57;;;;;;;15.10;72.31;100457.91;5102234;28;20040;-30
2022/05/13 04:53:25;;;;;;;12.68;9.07;;;;;;;15.05;72.65;100447.84;5106944;28;20031;-32
2022/05/13 04:55:52;;;;;;;12.93;9.45;;;;;;;15.22;71.87;100425.59;5106632;28;20055;-31
2022/05/13 04:58:18;;;;;;;10.98;8.82;;;;;;;15.58;69.45;100435.09;5088322;28;20023;-31
2022/05/13 05:00:45;;;;;;;11.93;8.77;;;;;;;15.87;68.33;100448.50;5106864;28;20097;-30
2022/05/13 05:03:11;;;;;;;12.63;8.73;;;;;;;16.01;67.88;100460.56;5106611;28;20036;-28
2022/05/13 05:05:37;;;;;;;12.98;9.43;;;;;;;16.15;65.05;100450.31;5106466;28;20066;-28
2022/05/13 05:08:03;;;;;;;12.18;9.00;;;;;;;15.85;65.53;100426.44;5088393;28;20032;-30
2022/05/13 05:10:28;;;;;;;12.80;8.57;;;;;;;16.04;66.67;100443.97;5106663;28;20042;-31
2022/05/13 05:12:55;;;;;;;13.88;9.63;;;;;;;16.21;65.83;100448.50;5106667;28;20400;-32
2022/05/13 05:15:22;;;;;;;13.05;9.43;;;;;;;16.06;65.21;100441.03;5088170;28;20504;-29
2022/05/13 05:17:47;;;;;;;12.50;9.20;;;;;;;16.32;64.29;100450.28;5090954;28;20833;-29
2022/05/13 05:20:14;;;;;;;12.82;9.82;;;;;;;16.67;64.69;100451.81;5110067;28;20034;-31
2022/05/13 05:22:42;;;;;;;16.58;10.27;;;;;;;16.81;63.04;100450.41;5092113;28;20028;-36
2022/05/13 05:25:08;;;;;;;13.27;8.40;;;;;;;16.97;61.15;100450.59;5110423;28;20043;-29
2022/05/13 05:27:35;;;;;;;13.75;9.52;;;;;;;16.93;61.14;100460.25;5110144;28;20030;-30
2022/05/13 05:30:03;;;;;;;14.32;9.93;;;;;;;17.05;61.95;100463.63;5110270;28;20035;-29
2022/05/13 05:32:28;;;;;;;14.40;9.40;;;;;;;17.24;61.20;100456.84;5091686;28;20035;-32
2022/05/13 05:34:54;;;;;;;17.80;10.55;;;;;;;17.06;63.66;100439.13;5110010;28;20272;-29
2022/05/13 05:37:19;;;;;;;13.25;10.25;;;;;;;17.59;61.47;100458.28;5110310;28;20037;-29
2022/05/13 05:39:45;;;;;;;14.57;10.50;;;;;;;17.58;61.20;100447.72;5109839;28;20051;-29
2022/05/13 05:42:10;;;;;;;16.88;10.00;;;;;;;17.75;60.58;100455.69;5110113;28;20015;-29
2022/05/13 05:44:36;;;;;;;14.50;11.07;;;;;;;17.67;61.52;100463.19;5110094;28;20031;-29
2022/05/13 05:47:02;;;;;;;18.02;10.95;;;;;;;17.77;59.29;100440.88;5109824;28;20035;-31
2022/05/13 05:49:27;;;;;;;18.60;10.50;;;;;;;18.04;59.18;100462.44;5091421;28;20032;-29
2022/05/13 05:51:52;;;;;;;16.52;10.63;;;;;;;18.17;58.57;100438.78;5109626;28;20037;-30
2022/05/13 05:57:14;;;;;;;13.45;9.70;;;;;;;18.57;57.08;100464.38;5109685;28;20034;-35
2022/05/13 05:59:44;;;;;;;15.18;9.80;;;;;;;18.96;56.13;100466.75;5091099;28;20031;-30
2022/05/13 06:02:10;;;;;;;12.60;8.90;;;;;;;19.13;54.81;100461.13;5091300;28;20027;-32
2022/05/13 06:04:37;;;;;;;12.30;8.35;;;;;;;19.23;53.84;100467.38;5074407;28;20114;-29
2022/05/13 06:07:07;;;;;;;11.85;8.80;;;;;;;19.20;54.19;100476.00;5091057;28;20023;-34
2022/05/13 06:09:33;;;;;;;15.43;10.02;;;;;;;19.27;53.54;100444.13;5090704;28;20100;-31
2022/05/13 06:11:59;;;;;;;13.73;10.10;;;;;;;19.48;53.96;100465.81;5109305;28;20153;-32
2022/05/13 06:14:26;;;;;;;14.40;9.80;;;;;;;19.61;53.92;100462.56;5090792;28;20038;-31
2022/05/13 06:16:51;;;;;;;15.93;10.05;;;;;;;19.56;54.92;100453.66;5090854;28;20134;-31
2022/05/13 06:19:17;;;;;;;13.35;8.38;;;;;;;19.79;54.22;100468.56;5109629;28;20034;-32
2022/05/13 06:21:43;;;;;;;15.05;8.90;;;;;;;19.85;53.72;100467.47;5109228;28;20043;-32
2022/05/13 06:24:09;;;;;;;20.48;12.45;;;;;;;19.77;53.45;100444.47;5109109;28;20114;-35
2022/05/13 06:26:35;;;;;;;14.25;8.30;;;;;;;19.98;52.71;100464.25;5109297;28;20168;-32
2022/05/13 06:29:02;;;;;;;10.80;8.27;;;;;;;20.13;54.47;100458.00;5108165;28;20395;-33
2022/05/13 06:31:28;;;;;;;11.40;8.32;;;;;;;20.32;55.28;100462.84;5109109;28;20031;-29
2022/05/13 06:33:53;;;;;;;12.48;8.30;;;;;;;20.47;52.68;100457.38;5108863;28;20020;-31
2022/05/13 06:36:19;;;;;;;16.30;8.50;;;;;;;20.44;53.89;100455.22;5108916;28;20475;-31
2022/05/13 06:38:44;;;;;;;13.88;8.80;;;;;;;20.68;52.36;100460.88;5090237;28;20163;-31
2022/05/13 06:41:10;;;;;;;12.43;8.32;;;;;;;20.57;52.79;100432.16;5108951;28;20566;-30
2022/05/13 06:43:35;;;;;;;12.95;8.27;;;;;;;20.85;51.79;100455.09;5108426;28;20482;-31
2022/05/13 06:46:01;;;;;;;10.18;7.88;;;;;;;20.94;52.06;100452.63;5108670;28;20062;-30
2022/05/13 06:48:26;;;;;;;11.15;8.40;;;;;;;21.20;51.13;100443.25;5108710;28;20096;-30
2022/05/13 06:50:52;;;;;;;10.65;7.28;;;;;;;21.18;51.17;100447.34;5108995;28;20136;-32
2022/05/13 06:53:19;;;;;;;11.88;7.60;;;;;;;21.50;50.90;100446.91;5090047;28;20066;-31
2022/05/13 06:55:46;;;;;;;11.27;8.02;;;;;;;21.39;51.04;100432.56;5089626;28;20514;-37
2022/05/13 06:58:12;;;;;;;13.27;7.47;;;;;;;21.67;50.24;100452.72;5089885;28;20100;-31
2022/05/13 07:00:38;;;;;;;11.57;7.85;;;;;;;21.81;50.02;100427.66;5089980;28;20031;-31
2022/05/13 07:03:04;;;;;;;10.07;8.05;;;;;;;21.84;50.19;100427.06;5090148;28;20032;-34
2022/05/13 07:05:30;;;;;;;12.18;7.38;;;;;;;22.13;49.96;100435.22;5089767;28;20058;-30
2022/05/13 07:07:56;;;;;;;13.70;7.25;;;;;;;22.25;47.49;100432.97;5108141;28;20614;-33
2022/05/13 07:10:23;;;;;;;15.48;7.03;;;;;;;22.40;48.45;100440.13;5108270;28;20085;-33
2022/05/13 07:12:48;;;;;;;10.23;7.47;;;;;;;22.22;49.94;100432.69;5090004;28;20775;-30
2022/05/13 07:15:17;;;;;;;10.80;6.68;;;;;;;22.07;48.31;100434.47;5108276;28;20032;-33
2022/05/13 07:17:43;;;;;;;9.07;6.95;;;;;;;22.30;48.85;100413.06;5108179;28;20065;-29
2022/05/13 07:20:11;;;;;;;12.70;6.97;;;;;;;22.45;47.96;100426.50;5089832;28;20024;-30
2022/05/13 07:22:36;;;;;;;8.98;7.00;;;;;;;22.22;48.91;100410.97;5089528;28;20031;-29
2022/05/13 07:25:02;;;;;;;11.00;7.10;;;;;;;22.35;48.07;100415.75;5107924;28;20570;-34
2022/05/13 07:27:28;;;;;;;9.63;6.47;;;;;;;22.60;48.29;100430.13;5089540;28;20826;-29
2022/05/13 07:29:53;;;;;;;11.23;7.47;;;;;;;22.57;47.82;100412.47;5107987;28;20027;-36
2022/05/13 07:32:18;;;;;;;10.85;6.97;;;;;;;22.83;48.13;100429.28;5107969;28;20554;-35
2022/05/13 07:34:44;;;;;;;10.52;6.88;;;;;;;22.83;47.33;100429.28;5107719;28;20109;-30
2022/05/13 07:37:09;;;;;;;10.90;7.97;;;;;;;22.72;47.20;100425.09;5107576;28;20055;-31
2022/05/13 07:42:19;;;;;;;9.85;7.45;;;;;;;22.52;47.21;100407.13;5107955;28;20061;-33
2022/05/13 07:44:44;;;;;;;9.75;7.43;;;;;;;22.86;47.32;100420.56;5107474;28;20027;-32
2022/05/13 07:47:10;;;;;;;9.95;7.53;;;;;;;23.13;46.30;100427.28;5107641;28;20107;-30
2022/05/13 07:49:38;;;;;;;10.93;7.30;;;;;;;22.95;46.08;100420.69;5088740;28;20436;-30
2022/05/13 07:52:04;;;;;;;11.75;7.68;;;;;;;23.50;50.71;100412.03;5089093;28;20054;-33
2022/05/13 07:54:30;;;;;;;10.70;7.68;;;;;;;23.46;47.76;100411.00;5088933;28;20090;-32
2022/05/13 07:56:55;;;;;;;10.68;7.60;;;;;;;23.36;49.39;100400.28;5107566;28;20469;-31
2022/05/13 07:59:21;;;;;;;11.80;8.00;;;;;;;23.51;49.94;100394.56;5107358;28;20032;-32
2022/05/13 08:01:46;;;;;;;9.65;7.00;;;;;;;23.71;47.60;100412.50;5107138;28;20034;-31
2022/05/13 08:04:12;;;;;;;10.00;7.63;;;;;;;23.57;45.21;100406.19;5107419;28;20100;-35
2022/05/13 08:06:40;;;;;;;12.13;7.47;;;;;;;23.78;46.41;100414.84;5088709;28;20027;-36
2022/05/13 08:09:05;;;;;;;11.00;7.05;;;;;;;24.14;47.87;100415.03;5107275;28;20074;-29
2022/05/13 08:11:31;;;;;;;12.02;7.30;;;;;;;23.85;45.33;100407.13;5107129;28;20053;-32
2022/05/13 08:13:57;;;;;;;10.80;6.80;;;;;;;23.91;46.51;100394.22;5107435;28;20038;-30
2022/05/13 08:16:26;;;;;;;11.80;7.63;;;;;;;24.08;46.00;100399.09;5088707;28;20024;-31
2022/05/13 08:18:53;;;;;;;10.60;6.95;;;;;;;24.51;46.00;100404.25;5088876;28;20092;-33
2022/05/13 08:21:19;;;;;;;8.77;6.72;;;;;;;24.90;44.95;100383.78;5088618;28;20027;-30
2022/05/13 08:23:45;;;;;;;14.70;7.28;;;;;;;25.26;44.56;100372.91;5088590;28;20035;-38
2022/05/13 08:26:12;;;;;;;8.45;6.45;;;;;;;25.44;45.09;100390.22;5088854;28;20023;-31
2022/05/13 08:28:38;;;;;;;8.77;6.47;;;;;;;25.44;44.42;100395.66;5088481;28;20541;-31
2022/05/13 08:31:04;;;;;;;10.90;7.30;;;;;;;25.32;42.71;100398.16;5088723;28;20023;-31
2022/05/13 08:33:30;;;;;;;9.32;6.95;;;;;;;25.26;42.55;100376.41;5088564;28;20118;-40
2022/05/13 08:35:59;;;;;;;9.55;6.53;;;;;;;25.34;42.71;100374.06;5088183;28;20130;-32
2022/05/13 08:38:32;;;;;;;10.90;6.72;;;;;;;25.75;44.48;100381.25;5088524;28;20040;-34
2022/05/13 08:41:09;;;;;;;8.05;6.97;;;;;;;25.88;40.30;100382.25;5088716;28;20034;-31
2022/05/13 08:43:40;;;;;;;13.07;6.70;;;;;;;26.00;43.02;100375.09;5106744;28;20056;-29
2022/05/13 08:46:30;;;;;;;10.85;7.00;;;;;;;26.43;39.94;100368.97;5088617;28;20107;-31
2022/05/13 08:49:27;;;;;;;11.85;6.97;;;;;;;26.15;39.34;100359.41;5107228;28;20028;-31
2022/05/13 08:51:55;;;;;;;9.33;6.77;;;;;;;26.46;38.79;100373.81;5103887;28;20047;-34
2022/05/13 08:54:26;;;;;;;10.23;7.18;;;;;;;26.26;39.74;100374.41;5092623;28;20262;-29
2022/05/13 08:56:56;;;;;;;8.38;6.60;;;;;;;26.26;40.02;100356.06;5110630;28;20138;-30
2022/05/13 08:59:23;;;;;;;10.05;7.20;;;;;;;26.57;39.08;100370.78;5092551;28;20023;-31
2022/05/13 09:01:55;;;;;;;16.50;7.63;;;;;;;26.61;41.03;100352.66;5110768;28;20456;-34
2022/05/13 09:04:32;;;;;;;8.80;6.15;;;;;;;26.41;41.44;100346.63;5092351;28;20352;-29
2022/05/13 09:07:00;;;;;;;;;;;;;;;26.59;42.40;100365.84;5092622;28;20699;-30
2022/05/13 09:09:26;;;;;;;9.10;6.65;;;;;;;26.57;40.22;100354.38;5110920;28;19911;-31
2022/05/13 09:12:03;;;;;;;8.45;6.28;;;;;;;27.02;39.71;100354.91;5092184;28;20036;-33
2022/05/13 09:14:43;;;;;;;8.43;6.47;;;;;;;26.79;40.74;100348.81;5092166;28;20447;-31
2022/05/13 09:17:30;;;;;;;8.73;6.90;;;;;;;26.54;40.78;100338.59;5092058;28;20031;-36
2022/05/13 09:20:19;;;;;;;11.20;6.77;;;;;;;26.62;42.59;100333.19;5092305;28;20454;-30
2022/05/13 09:22:52;;;;;;;8.10;6.88;;;;;;;26.98;41.69;100332.06;5092277;28;20291;-34
2022/05/13 09:25:48;;;;;;;11.30;6.60;;;;;;;26.92;40.45;100335.28;5110318;28;20031;-35
2022/05/13 09:28:15;;;;;;;10.93;6.03;;;;;;;27.00;41.99;100315.31;5110493;28;20403;-29
2022/05/13 09:30:44;;;;;;;10.02;7.13;;;;;;;27.16;40.95;100330.09;5091707;28;20452;-30
2022/05/13 09:33:33;;;;;;;9.88;6.43;;;;;;;27.41;39.08;100333.16;5091734;28;20482;-30
2022/05/13 09:36:04;;;;;;;9.25;5.75;;;;;;;27.34;39.68;100310.94;5109914;28;20032;-30
2022/05/13 09:38:32;;;;;;;7.80;6.07;;;;;;;27.87;39.22;100328.84;5091346;28;20043;-31
2022/05/13 09:41:08;;;;;;;11.55;6.13;;;;;;;28.33;38.76;100318.91;5110005;28;20057;-30
2022/05/13 09:43:38;;;;;;;10.10;5.75;;;;;;;28.55;35.15;100308.81;5091506;28;20036;-32
2022/05/13 09:46:09;;;;;;;8.73;5.55;;;;;;;29.15;34.45;100307.50;5091398;28;20024;-30
2022/05/13 09:48:38;;;;;;;8.50;5.93;;;;;;;28.70;35.35;100278.00;5109807;28;20063;-33
2022/05/13 09:51:22;;;;;;;6.30;5.28;;;;;;;28.99;35.81;100295.50;5090974;28;20490;-29
2022/05/13 09:54:06;;;;;;;9.45;5.78;;;;;;;29.09;37.93;100303.31;5109694;28;20031;-30
2022/05/13 09:56:39;;;;;;;8.10;5.55;;;;;;;29.16;35.91;100300.88;5091117;28;20113;-33
2022/05/13 09:59:13;;;;;;;8.27;4.80;;;;;;;28.79;34.23;100292.47;5091118;28;20035;-31
2022/05/13 10:01:39;;;;;;;9.30;5.72;;;;;;;29.37;36.16;100281.56;5091093;28;20581;-30
2022/05/13 10:04:18;;;;;;;8.07;4.95;;;;;;;29.56;32.49;100281.03;5108528;28;20103;-32
2022/05/13 10:06:44;;;;;;;7.05;5.00;;;;;;;28.99;34.95;100279.03;5091145;28;20395;-33
2022/05/13 10:15:25;;;;;;;8.63;5.43;;;;;;;29.26;35.79;100269.44;5109696;28;20701;-32
2022/05/13 10:17:55;;;;;;;6.70;4.90;;;;;;;29.27;35.45;100262.00;5090541;28;20771;-35
2022/05/13 10:20:27;;;;;;;8.55;5.20;;;;;;;29.34;35.20;100262.22;5091105;28;20067;-31
2022/05/13 10:23:04;;;;;;;8.43;5.10;;;;;;;29.34;37.16;100253.97;5090799;28;20039;-33
2022/05/13 10:25:35;;;;;;;7.45;5.38;;;;;;;29.51;36.35;100255.75;5109232;28;20034;-32
2022/05/13 10:28:15;;;;;;;9.82;5.63;;;;;;;29.36;33.93;100249.78;5090611;28;20032;-31
2022/05/13 10:31:02;;;;;;;7.72;5.50;;;;;;;29.44;34.36;100245.28;5108829;28;20039;-33
2022/05/13 10:33:38;;;;;;;;;;;;;;;29.38;34.45;100247.47;5091135;28;20130;-31
2022/05/13 10:36:22;;;;;;;9.55;5.35;;;;;;;29.43;33.99;100243.69;5090333;28;19926;-30
2022/05/13 10:39:02;;;;;;;8.77;6.15;;;;;;;29.39;33.83;100227.09;5089960;28;20051;-30
2022/05/13 10:41:50;;;;;;;9.90;6.53;;;;;;;29.87;36.08;100210.16;5090320;28;20104;-29
2022/05/13 10:44:20;;;;;;;9.38;6.22;;;;;;;30.05;35.33;100225.25;5090452;28;20027;-32
2022/05/13 10:46:58;;;;;;;8.23;5.55;;;;;;;30.35;34.38;100228.53;5090202;28;20497;-31
2022/05/13 10:49:31;;;;;;;8.38;5.32;;;;;;;29.87;36.52;100208.22;5090177;28;20027;-32
2022/05/13 10:52:15;;;;;;;12.27;5.95;;;;;;;30.59;32.94;100222.16;5090431;28;20028;-30
2022/05/13 10:55:10;;;;;;;8.70;5.10;;;;;;;30.89;30.65;100221.00;5108746;28;20031;-30
2022/05/13 10:57:57;;;;;;;10.27;4.82;;;;;;;31.34;29.00;100219.78;5089909;28;20034;-30
2022/05/13 11:00:43;;;;;;;6.68;4.97;;;;;;;31.23;28.82;100190.03;5108719;28;20031;-35
2022/05/13 11:03:27;;;;;;;7.13;5.10;;;;;;;31.60;33.62;100208.25;5090020;28;20027;-33
2022/05/13 11:06:14;;;;;;;7.63;5.13;;;;;;;31.43;30.42;100192.88;5108152;28;20028;-32
2022/05/13 11:08:49;;;;;;;;;;;;;;;31.52;29.22;100212.00;5090495;28;20037;-30
2022/05/13 11:11:26;;;;;;;9.32;4.15;;;;;;;31.68;28.47;100195.44;5090276;28;19938;-33
2022/05/13 11:14:11;;;;;;;6.47;4.07;;;;;;;31.77;25.21;100187.75;5089779;28;20070;-32
2022/05/13 11:17:11;;;;;;;7.25;4.50;;;;;;;32.34;30.76;100191.75;5108277;28;20024;-29
2022/05/13 11:19:48;;;;;;;6.63;4.38;;;;;;;31.18;29.10;100181.22;5107897;28;20473;-30
2022/05/13 11:22:31;;;;;;;7.78;4.57;;;;;;;32.11;26.96;100174.34;5089716;28;20022;-32
2022/05/13 11:28:17;;;;;;;7.65;4.22;;;;;;;32.05;27.24;100150.97;5108405;28;20481;-32
2022/05/13 11:30:54;;;;;;;6.82;4.15;;;;;;;32.06;26.75;100153.38;5089435;28;20514;-31
2022/05/13 11:33:38;;;;;;;6.63;3.95;;;;;;;32.35;27.03;100159.47;5089451;28;20028;-31
2022/05/13 11:36:16;;;;;;;6.30;4.10;;;;;;;32.63;26.77;100137.97;5089362;28;20529;-29
2022/05/13 11:38:56;;;;;;;8.32;4.85;;;;;;;32.65;26.60;100148.59;5088924;28;20043;-36
2022/05/13 11:41:23;;;;;;;6.43;4.28;;;;;;;32.85;25.65;100156.84;5089062;28;20024;-36
2022/05/13 11:43:57;;;;;;;7.38;4.40;;;;;;;32.66;25.77;100152.97;5089189;28;20031;-30
2022/05/13 11:46:38;;;;;;;5.57;4.18;;;;;;;32.70;25.22;100155.81;5107725;28;20023;-32
2022/05/13 11:49:09;;;;;;;7.00;3.97;;;;;;;32.99;24.46;100144.06;5089096;28;20027;-32
2022/05/13 11:51:35;;;;;;;6.57;3.75;;;;;;;33.18;25.58;100136.91;5107348;28;20042;-30
2022/05/13 11:54:00;;;;;;;5.00;3.08;;;;;;;33.54;23.15;100135.47;5088821;28;20027;-31